Time;durP1;ratioP1;P1;durP2;ratioP2;P2;SDS_P1;SDS_P2;PMS_P1;PMS_P2;Temp;Humidity;BMP_temperature;BMP_pressure;BME280_temperature;BME280_humidity;BME280_pressure;Samples;Min_cycle;Max_cycle;Signal;HPM_P1;HPM_P2
2023/06/26 00:01:17;;;;;;;;;;;23.50;99.90;;;;;;5076531;28;19954;-74
2023/06/26 00:03:43;;;;;;;;;;;23.50;99.90;;;;;;5094778;28;19912;-74
2023/06/26 00:06:08;;;;;;;;;;;23.50;99.90;;;;;;5095145;28;20025;-74
2023/06/26 00:08:34;;;;;;;;;;;23.50;99.90;;;;;;5076316;28;19973;-74
2023/06/26 00:11:00;;;;;;;;;;;23.60;99.90;;;;;;5094555;28;19908;-74
2023/06/26 00:13:26;;;;;;;;;;;23.70;99.90;;;;;;5094196;28;19973;-74
2023/06/26 00:15:52;;;;;;;;;;;23.70;99.90;;;;;;5094875;28;19908;-74
2023/06/26 00:18:18;;;;;;;;;;;23.70;99.90;;;;;;5094583;28;20021;-74
2023/06/26 00:20:44;;;;;;;;;;;23.60;99.90;;;;;;5094810;28;19908;-74
2023/06/26 00:23:11;;;;;;;;;;;23.70;99.90;;;;;;5094209;28;19908;-74
2023/06/26 00:25:37;;;;;;;;;;;23.70;99.90;;;;;;5094225;28;19915;-74
2023/06/26 00:28:02;;;;;;;;;;;23.70;99.90;;;;;;5094175;28;19908;-73
2023/06/26 00:30:28;;;;;;;;;;;23.70;99.90;;;;;;5094652;28;19934;-73
2023/06/26 00:32:55;;;;;;;;;;;23.60;99.90;;;;;;5094051;28;19908;-74
2023/06/26 00:35:21;;;;;;;;;;;23.50;99.90;;;;;;5094048;28;19943;-74
2023/06/26 00:37:47;;;;;;;;;;;23.40;99.90;;;;;;5093969;28;19931;-74
2023/06/26 00:40:19;;;;;;;;;;;23.40;99.90;;;;;;5075730;28;20284;-74
2023/06/26 00:42:45;;;;;;;;;;;23.40;99.90;;;;;;5093679;28;20377;-74
2023/06/26 00:45:11;;;;;;;;;;;23.30;99.90;;;;;;5094341;28;20317;-74
2023/06/26 00:47:37;;;;;;;;;;;23.40;99.90;;;;;;5094013;28;19915;-74
2023/06/26 00:50:03;;;;;;;;;;;23.30;99.90;;;;;;5093744;28;19924;-73
2023/06/26 00:52:29;;;;;;;;;;;23.20;99.90;;;;;;5093449;28;19908;-74
2023/06/26 00:54:55;;;;;;;;;;;23.20;99.90;;;;;;5093632;28;19920;-75
2023/06/26 00:57:21;;;;;;;;;;;23.20;99.90;;;;;;5093534;28;20060;-74
2023/06/26 00:59:48;;;;;;;;;;;23.30;99.90;;;;;;5093611;28;20357;-74
2023/06/26 01:02:17;;;;;;;;;;;23.30;99.90;;;;;;5094113;28;19915;-74
2023/06/26 01:04:46;;;;;;;;;;;23.30;99.90;;;;;;5093492;28;19995;-74
2023/06/26 01:07:13;;;;;;;;;;;23.30;99.90;;;;;;5093798;28;19908;-74
2023/06/26 01:09:39;;;;;;;;;;;23.30;99.90;;;;;;5093445;28;19908;-73
2023/06/26 01:12:05;;;;;;;;;;;23.40;99.90;;;;;;5093402;28;19991;-74
2023/06/26 01:14:32;;;;;;;;;;;23.40;99.90;;;;;;5093863;28;19981;-75
2023/06/26 01:17:00;;;;;;;;;;;23.40;99.90;;;;;;5093388;28;20311;-74
2023/06/26 01:19:28;;;;;;;;;;;23.40;99.90;;;;;;5093402;28;19908;-74
2023/06/26 01:22:14;;;;;;;;;;;23.30;99.90;;;;;;5093854;28;19908;-74
2023/06/26 01:24:42;;;;;;;;;;;23.30;99.90;;;;;;5075184;28;20074;-74
2023/06/26 01:27:08;;;;;;;;;;;23.30;99.90;;;;;;5074977;28;19920;-74
2023/06/26 01:29:35;;;;;;;;;;;23.20;99.90;;;;;;5093494;28;19908;-74
2023/06/26 01:32:00;;;;;;;;;;;23.20;99.90;;;;;;5093224;28;19908;-74
2023/06/26 01:34:26;;;;;;;;;;;23.20;99.90;;;;;;5093491;28;20451;-74
2023/06/26 01:36:52;;;;;;;;;;;23.20;99.90;;;;;;5093112;28;20307;-74
2023/06/26 01:39:19;;;;;;;;;;;23.10;99.90;;;;;;5093617;28;19965;-74
2023/06/26 01:41:45;;;;;;;;;;;23.20;99.90;;;;;;5093005;28;19997;-74
2023/06/26 01:44:27;;;;;;;;;;;23.20;99.90;;;;;;5092995;28;19961;-74
2023/06/26 01:46:52;;;;;;;;;;;23.20;99.90;;;;;;5093082;28;19915;-74
2023/06/26 01:49:33;;;;;;;;;;;23.20;99.90;;;;;;5093502;28;19912;-74
2023/06/26 01:51:59;;;;;;;;;;;23.20;99.90;;;;;;5092955;28;19908;-74
2023/06/26 01:54:30;;;;;;;;;;;23.20;99.90;;;;;;5074695;28;19923;-74
2023/06/26 01:56:57;;;;;;;;;;;23.10;99.90;;;;;;5093027;28;19908;-73
2023/06/26 01:59:23;;;;;;;;;;;23.20;99.90;;;;;;5093114;28;19938;-74
2023/06/26 02:01:49;;;;;;;;;;;23.10;99.90;;;;;;5093780;28;19908;-75
2023/06/26 02:04:15;;;;;;;;;;;23.10;99.90;;;;;;5097006;28;20379;-74
2023/06/26 02:06:41;;;;;;;;;;;23.10;99.90;;;;;;5096977;28;20389;-74
2023/06/26 02:09:07;;;;;;;;;;;23.10;99.90;;;;;;5097001;28;19908;-74
2023/06/26 02:11:34;;;;;;;;;;;23.10;99.90;;;;;;5096729;28;19917;-75
2023/06/26 02:13:59;;;;;;;;;;;23.10;99.90;;;;;;5078830;28;20391;-74
2023/06/26 02:16:25;;;;;;;;;;;23.10;99.90;;;;;;5096834;28;19924;-75
2023/06/26 02:18:51;;;;;;;;;;;23.10;99.90;;;;;;5078566;28;19959;-75
2023/06/26 02:21:17;;;;;;;;;;;23.10;99.90;;;;;;5096743;28;19909;-74
2023/06/26 02:23:42;;;;;;;;;;;23.10;99.90;;;;;;5097072;28;19919;-74
2023/06/26 02:26:08;;;;;;;;;;;23.10;99.90;;;;;;5096592;28;19919;-74
2023/06/26 02:28:34;;;;;;;;;;;23.10;99.90;;;;;;5078430;28;19912;-74
2023/06/26 02:31:00;;;;;;;;;;;23.10;99.90;;;;;;5096569;28;19908;-74
2023/06/26 02:33:26;;;;;;;;;;;23.10;99.90;;;;;;5078152;28;19970;-74
2023/06/26 02:35:52;;;;;;;;;;;23.10;99.90;;;;;;5096959;28;19908;-74
2023/06/26 02:38:18;;;;;;;;;;;23.10;99.90;;;;;;5096670;28;20357;-74
2023/06/26 02:40:44;;;;;;;;;;;23.10;99.90;;;;;;5096746;28;20314;-75
2023/06/26 02:43:10;;;;;;;;;;;23.00;99.90;;;;;;5096723;28;20063;-74
2023/06/26 02:45:35;;;;;;;;;;;23.00;99.90;;;;;;5096250;28;19915;-75
2023/06/26 02:48:01;;;;;;;;;;;23.00;99.90;;;;;;5096172;28;19908;-75
2023/06/26 02:50:27;;;;;;;;;;;23.00;99.90;;;;;;5077986;28;19915;-74
2023/06/26 02:52:53;;;;;;;;;;;23.00;99.90;;;;;;5096496;28;19915;-74
2023/06/26 02:55:20;;;;;;;;;;;23.00;99.90;;;;;;5096057;28;19915;-74
2023/06/26 02:57:46;;;;;;;;;;;22.90;99.90;;;;;;5077758;28;20011;-74
2023/06/26 03:00:12;;;;;;;;;;;23.00;99.90;;;;;;5096069;28;20035;-74
2023/06/26 03:02:38;;;;;;;;;;;22.90;99.90;;;;;;5095967;28;19912;-74
2023/06/26 03:05:04;;;;;;;;;;;22.90;99.90;;;;;;5095857;28;19908;-74
2023/06/26 03:07:30;;;;;;;;;;;22.80;99.90;;;;;;5096107;28;19908;-75
2023/06/26 03:10:00;;;;;;;;;;;22.70;99.90;;;;;;5095853;28;20310;-74
2023/06/26 03:12:26;;;;;;;;;;;22.70;99.90;;;;;;5095491;28;19927;-74
2023/06/26 03:14:51;;;;;;;;;;;22.70;99.90;;;;;;5095128;28;19916;-73
2023/06/26 03:17:17;;;;;;;;;;;22.70;99.90;;;;;;5095585;28;20376;-74
2023/06/26 03:19:43;;;;;;;;;;;22.70;99.90;;;;;;5095993;28;19955;-74
2023/06/26 03:22:09;;;;;;;;;;;22.70;99.90;;;;;;5095482;28;19915;-74
2023/06/26 03:24:35;;;;;;;;;;;22.70;99.90;;;;;;5095479;28;19962;-74
2023/06/26 03:27:00;;;;;;;;;;;22.70;99.90;;;;;;5095427;28;20015;-74
2023/06/26 03:29:26;;;;;;;;;;;22.70;99.90;;;;;;5095586;28;19908;-74
2023/06/26 03:31:52;;;;;;;;;;;22.70;99.90;;;;;;5095606;28;20291;-74
2023/06/26 03:34:18;;;;;;;;;;;22.80;99.90;;;;;;5076955;28;19916;-74
2023/06/26 03:36:44;;;;;;;;;;;22.80;99.90;;;;;;5077286;28;19961;-74
2023/06/26 03:39:09;;;;;;;;;;;22.70;99.90;;;;;;5095695;28;19908;-74
2023/06/26 03:41:35;;;;;;;;;;;22.70;99.90;;;;;;5094969;28;19916;-74
2023/06/26 03:44:01;;;;;;;;;;;22.60;99.90;;;;;;5095579;28;20037;-74
2023/06/26 03:46:27;;;;;;;;;;;22.70;99.90;;;;;;5076865;28;20381;-74
2023/06/26 03:48:53;;;;;;;;;;;22.70;99.90;;;;;;5076771;28;20013;-74
2023/06/26 03:51:19;;;;;;;;;;;22.70;99.90;;;;;;5094923;28;19912;-73
2023/06/26 03:53:45;;;;;;;;;;;22.70;99.90;;;;;;5094826;28;19916;-73
2023/06/26 03:56:11;;;;;;;;;;;22.70;99.90;;;;;;5094849;28;19908;-75
2023/06/26 03:58:36;;;;;;;;;;;22.70;99.90;;;;;;5094740;28;19908;-73
2023/06/26 04:01:02;;;;;;;;;;;22.70;99.90;;;;;;5094722;28;19931;-74
2023/06/26 04:03:28;;;;;;;;;;;22.70;99.90;;;;;;5094596;28;20465;-74
2023/06/26 04:05:55;;;;;;;;;;;22.80;99.90;;;;;;5095128;28;19950;-74
2023/06/26 04:08:21;;;;;;;;;;;22.80;99.90;;;;;;5094611;28;19986;-74
2023/06/26 04:10:47;;;;;;;;;;;22.80;99.90;;;;;;5076271;28;20383;-74
2023/06/26 04:13:14;;;;;;;;;;;22.90;99.90;;;;;;5094274;28;19924;-74
2023/06/26 04:15:40;;;;;;;;;;;22.90;99.90;;;;;;5094382;28;19915;-74
2023/06/26 04:18:05;;;;;;;;;;;22.90;99.90;;;;;;5076197;28;19908;-74
2023/06/26 04:20:31;;;;;;;;;;;22.90;99.90;;;;;;5094355;28;19908;-75
2023/06/26 04:22:57;;;;;;;;;;;22.80;99.90;;;;;;5094223;28;19908;-74
2023/06/26 04:25:23;;;;;;;;;;;22.80;99.90;;;;;;5094065;28;19938;-73
2023/06/26 04:27:49;;;;;;;;;;;22.80;99.90;;;;;;5093937;28;19912;-74
2023/06/26 04:30:15;;;;;;;;;;;22.90;99.90;;;;;;5094615;28;19912;-74
2023/06/26 04:32:40;;;;;;;;;;;22.90;99.90;;;;;;5094090;28;19908;-74
2023/06/26 04:35:06;;;;;;;;;;;23.00;99.90;;;;;;5093936;28;19970;-74
2023/06/26 04:37:32;;;;;;;;;;;23.00;99.90;;;;;;5075883;28;19908;-74
2023/06/26 04:39:58;;;;;;;;;;;23.10;99.90;;;;;;5094474;28;19987;-76
2023/06/26 04:42:24;;;;;;;;;;;23.20;99.90;;;;;;5093886;28;20360;-74
2023/06/26 04:44:49;;;;;;;;;;;23.20;99.90;;;;;;5075479;28;19908;-75
2023/06/26 04:47:16;;;;;;;;;;;23.10;99.90;;;;;;5093958;28;19908;-74
2023/06/26 04:49:45;;;;;;;;;;;23.20;99.90;;;;;;5093481;28;20348;-75
2023/06/26 04:52:13;;;;;;;;;;;23.30;99.90;;;;;;5093831;28;20275;-74
2023/06/26 04:54:39;;;;;;;;;;;23.30;99.90;;;;;;5075125;28;19920;-74
2023/06/26 04:57:05;;;;;;;;;;;23.20;99.90;;;;;;5093471;28;19916;-74
2023/06/26 04:59:31;;;;;;;;;;;23.20;99.90;;;;;;5093484;28;20360;-74
2023/06/26 05:01:57;;;;;;;;;;;23.40;99.90;;;;;;5093519;28;19915;-74
2023/06/26 05:04:23;;;;;;;;;;;24.00;99.90;;;;;;5093268;28;19915;-74
2023/06/26 05:06:49;;;;;;;;;;;24.90;99.90;;;;;;5093659;28;19918;-75
2023/06/26 05:09:14;;;;;;;;;;;25.80;99.90;;;;;;5093247;28;19952;-74
2023/06/26 05:11:40;;;;;;;;;;;26.50;99.90;;;;;;5092828;28;19977;-75
2023/06/26 05:14:09;;;;;;;;;;;27.20;99.90;;;;;;5093529;28;19916;-75
2023/06/26 05:16:35;;;;;;;;;;;28.00;99.90;;;;;;5093041;28;19915;-76
2023/06/26 05:19:02;;;;;;;;;;;29.00;99.90;;;;;;5093467;28;20356;-75
2023/06/26 05:21:28;;;;;;;;;;;28.60;99.90;;;;;;5092992;28;19960;-75
2023/06/26 05:23:55;;;;;;;;;;;29.40;99.90;;;;;;5074618;28;20014;-75
2023/06/26 05:26:21;;;;;;;;;;;30.20;99.90;;;;;;5074450;28;20376;-72
2023/06/26 05:28:48;;;;;;;;;;;31.10;99.90;;;;;;5093010;28;19917;-73
2023/06/26 05:31:17;;;;;;;;;;;31.70;99.90;;;;;;5092821;28;19909;-73
2023/06/26 05:33:45;;;;;;;;;;;31.00;99.90;;;;;;5092629;28;19920;-74
2023/06/26 05:36:12;;;;;;;;;;;30.70;99.90;;;;;;5092343;28;19909;-73
2023/06/26 05:38:38;;;;;;;;;;;30.50;99.90;;;;;;5092817;28;19915;-74
2023/06/26 05:41:04;;;;;;;;;;;31.30;99.90;;;;;;5092584;28;19934;-74
2023/06/26 05:43:30;;;;;;;;;;;31.00;99.90;;;;;;5092757;28;20003;-74
2023/06/26 05:45:57;;;;;;;;;;;31.30;99.90;;;;;;5074438;28;20360;-73
2023/06/26 05:48:23;;;;;;;;;;;32.30;99.90;;;;;;5092795;28;19908;-73
2023/06/26 05:50:49;;;;;;;;;;;33.20;99.90;;;;;;5074289;28;20310;-74
2023/06/26 05:53:15;;;;;;;;;;;33.40;99.90;;;;;;5074165;28;19908;-74
2023/06/26 05:55:42;;;;;;;;;;;33.80;99.90;;;;;;5092472;28;19908;-74
2023/06/26 05:58:09;;;;;;;;;;;33.50;99.90;;;;;;5092067;28;20272;-74
2023/06/26 06:00:35;;;;;;;;;;;33.70;99.90;;;;;;5092310;28;19915;-75
2023/06/26 06:03:01;;;;;;;;;;;34.30;99.90;;;;;;5092468;28;19908;-74
2023/06/26 06:05:27;;;;;;;;;;;34.30;99.90;;;;;;5092341;28;19916;-75
2023/06/26 06:07:53;;;;;;;;;;;35.40;99.90;;;;;;5073811;28;19915;-75
2023/06/26 06:10:19;;;;;;;;;;;34.90;99.90;;;;;;5092397;28;19912;-74
2023/06/26 06:12:44;;;;;;;;;;;35.10;99.90;;;;;;5091555;28;20056;-76
2023/06/26 06:15:10;;;;;;;;;;;34.00;99.90;;;;;;5092275;28;19967;-76
2023/06/26 06:17:36;;;;;;;;;;;34.00;99.90;;;;;;5092067;28;19908;-74
2023/06/26 06:20:02;;;;;;;;;;;34.40;99.90;;;;;;5092491;28;20002;-74
2023/06/26 06:22:28;;;;;;;;;;;34.70;99.90;;;;;;5073896;28;20343;-75
2023/06/26 06:24:54;;;;;;;;;;;34.20;99.90;;;;;;5092046;28;20348;-75
2023/06/26 06:27:20;;;;;;;;;;;34.20;99.90;;;;;;5073584;28;19952;-74
2023/06/26 06:29:46;;;;;;;;;;;34.80;99.90;;;;;;5092285;28;19930;-74
2023/06/26 06:32:11;;;;;;;;;;;36.00;99.90;;;;;;5092040;28;20257;-74
2023/06/26 06:34:37;;;;;;;;;;;35.40;99.90;;;;;;5092038;28;19917;-74
2023/06/26 06:37:03;;;;;;;;;;;34.10;99.90;;;;;;5091769;28;20394;-74
2023/06/26 06:39:29;;;;;;;;;;;33.40;99.90;;;;;;5091825;28;19912;-74
2023/06/26 06:41:55;;;;;;;;;;;32.90;99.90;;;;;;5092096;28;19995;-74
2023/06/26 06:44:21;;;;;;;;;;;32.50;99.90;;;;;;5091822;28;19978;-74
2023/06/26 06:46:48;;;;;;;;;;;32.10;99.90;;;;;;5091853;28;19908;-74
2023/06/26 06:49:14;;;;;;;;;;;32.70;99.90;;;;;;5093420;28;19939;-74
2023/06/26 06:51:40;;;;;;;;;;;32.60;99.90;;;;;;5095610;28;20252;-72
2023/06/26 06:54:05;;;;;;;;;;;32.40;99.90;;;;;;5095483;28;19923;-73
2023/06/26 06:56:32;;;;;;;;;;;32.70;99.90;;;;;;5076759;28;19908;-73
2023/06/26 06:58:58;;;;;;;;;;;34.30;99.90;;;;;;5095019;28;20017;-74
2023/06/26 07:01:24;;;;;;;;;;;35.10;99.90;;;;;;5095161;28;19926;-73
2023/06/26 07:03:49;;;;;;;;;;;35.90;99.90;;;;;;5095021;28;19912;-75
2023/06/26 07:06:15;;;;;;;;;;;36.60;99.90;;;;;;5095523;28;19961;-73
2023/06/26 07:08:41;;;;;;;;;;;36.90;99.90;;;;;;5095116;28;20309;-74
2023/06/26 07:11:07;;;;;;;;;;;37.10;99.00;;;;;;5095087;28;20051;-74
2023/06/26 07:13:32;;;;;;;;;;;36.60;99.00;;;;;;5094521;28;19942;-74
2023/06/26 07:15:58;;;;;;;;;;;36.80;99.10;;;;;;5094883;28;19953;-75
2023/06/26 07:18:24;;;;;;;;;;;37.30;98.30;;;;;;5095437;28;19908;-73
2023/06/26 07:20:50;;;;;;;;;;;38.70;97.30;;;;;;5094876;28;20268;-73
2023/06/26 07:23:16;;;;;;;;;;;37.40;97.10;;;;;;5095172;28;19995;-73
2023/06/26 07:25:42;;;;;;;;;;;36.80;97.70;;;;;;5094697;28;20297;-76
2023/06/26 07:28:11;;;;;;;;;;;37.10;97.90;;;;;;5095035;28;19923;-75
2023/06/26 07:30:37;;;;;;;;;;;36.20;97.50;;;;;;5095227;28;19911;-74
2023/06/26 07:33:03;;;;;;;;;;;36.80;97.70;;;;;;5094246;28;19908;-74
2023/06/26 07:35:29;;;;;;;;;;;36.50;97.10;;;;;;5095155;28;19912;-73
2023/06/26 07:37:54;;;;;;;;;;;35.10;97.90;;;;;;5094635;28;19908;-75
2023/06/26 07:40:20;;;;;;;;;;;34.30;99.10;;;;;;5094598;28;19951;-74
2023/06/26 07:42:46;;;;;;;;;;;34.10;99.40;;;;;;5094467;28;19908;-74
2023/06/26 07:45:12;;;;;;;;;;;34.70;99.90;;;;;;5094878;28;20352;-74
2023/06/26 07:47:38;;;;;;;;;;;35.10;99.90;;;;;;5094427;28;19912;-75
2023/06/26 07:50:04;;;;;;;;;;;35.80;99.90;;;;;;5094843;28;20338;-73
2023/06/26 07:52:30;;;;;;;;;;;36.00;99.90;;;;;;5094065;28;19984;-74
2023/06/26 07:54:56;;;;;;;;;;;36.00;99.80;;;;;;5094421;28;19954;-74
2023/06/26 07:57:22;;;;;;;;;;;36.00;99.80;;;;;;5093808;28;19919;-74
2023/06/26 07:59:48;;;;;;;;;;;35.80;99.70;;;;;;5094008;28;20272;-74
2023/06/26 08:02:14;;;;;;;;;;;36.00;99.80;;;;;;5093971;28;20421;-74
2023/06/26 08:04:40;;;;;;;;;;;36.00;99.90;;;;;;5094392;28;19935;-73
2023/06/26 08:07:05;;;;;;;;;;;35.90;99.90;;;;;;5093878;28;20389;-74
2023/06/26 08:09:32;;;;;;;;;;;35.70;99.90;;;;;;5093943;28;19962;-74
2023/06/26 08:11:58;;;;;;;;;;;35.80;99.90;;;;;;5093701;28;19920;-74
2023/06/26 08:14:24;;;;;;;;;;;35.80;99.80;;;;;;5094035;28;19923;-75
2023/06/26 08:16:50;;;;;;;;;;;35.50;99.90;;;;;;5093745;28;19916;-75
2023/06/26 08:19:16;;;;;;;;;;;35.00;99.90;;;;;;5094107;28;20280;-76
2023/06/26 08:21:43;;;;;;;;;;;35.00;99.90;;;;;;5093914;28;19915;-75
2023/06/26 08:24:09;;;;;;;;;;;34.70;99.90;;;;;;5093686;28;19912;-74
2023/06/26 08:26:35;;;;;;;;;;;34.90;99.90;;;;;;5093577;28;19915;-75
2023/06/26 08:29:07;;;;;;;;;;;35.10;99.90;;;;;;5093714;28;19908;-74
2023/06/26 08:31:36;;;;;;;;;;;35.40;99.90;;;;;;5093750;28;19908;-74
2023/06/26 08:34:02;;;;;;;;;;;35.40;99.90;;;;;;5075170;28;20010;-75
2023/06/26 08:36:28;;;;;;;;;;;35.00;99.90;;;;;;5093745;28;19908;-74
2023/06/26 08:38:54;;;;;;;;;;;35.20;99.90;;;;;;5093365;28;19908;-75
2023/06/26 08:41:20;;;;;;;;;;;34.70;99.90;;;;;;5093632;28;19994;-75
2023/06/26 08:43:46;;;;;;;;;;;35.00;99.90;;;;;;5093190;28;19915;-76
2023/06/26 08:46:12;;;;;;;;;;;35.30;99.90;;;;;;5093004;28;19988;-74
2023/06/26 08:48:39;;;;;;;;;;;35.30;99.90;;;;;;5093645;28;20342;-75
2023/06/26 08:51:08;;;;;;;;;;;35.00;99.90;;;;;;5092926;28;19919;-75
2023/06/26 08:53:53;;;;;;;;;;;34.70;99.90;;;;;;5093261;28;20250;-75
2023/06/26 08:56:21;;;;;;;;;;;34.40;99.90;;;;;;5093199;28;19966;-75
2023/06/26 08:58:47;;;;;;;;;;;34.50;99.90;;;;;;5092984;28;19931;-74
2023/06/26 09:01:13;;;;;;;;;;;35.00;99.90;;;;;;5093332;28;20344;-75
2023/06/26 09:03:41;;;;;;;;;;;35.10;99.80;;;;;;5074619;28;19912;-75
2023/06/26 09:06:07;;;;;;;;;;;34.50;99.90;;;;;;5074927;28;19908;-75
2023/06/26 09:08:33;;;;;;;;;;;34.30;99.90;;;;;;5092923;28;19962;-75
2023/06/26 09:10:59;;;;;;;;;;;34.00;99.90;;;;;;5092482;28;20032;-75
2023/06/26 09:13:25;;;;;;;;;;;33.70;99.90;;;;;;5091830;28;19920;-75
2023/06/26 09:15:53;;;;;;;;;;;33.80;99.90;;;;;;5092748;28;19909;-75
2023/06/26 09:18:21;;;;;;;;;;;33.90;99.90;;;;;;5092637;28;19933;-74
2023/06/26 09:20:47;;;;;;;;;;;33.80;99.90;;;;;;5092707;28;19931;-74
2023/06/26 09:23:13;;;;;;;;;;;34.10;99.90;;;;;;5074640;28;19941;-74
2023/06/26 09:25:40;;;;;;;;;;;34.00;99.90;;;;;;5093026;28;20062;-75
2023/06/26 09:28:06;;;;;;;;;;;34.00;99.90;;;;;;5074026;28;19916;-74
2023/06/26 09:30:32;;;;;;;;;;;33.60;99.90;;;;;;5092669;28;19915;-75
2023/06/26 09:33:12;;;;;;;;;;;33.40;99.90;;;;;;5092586;28;20253;-75
2023/06/26 09:35:38;;;;;;;;;;;33.50;99.90;;;;;;5092760;28;19916;-74
2023/06/26 09:38:04;;;;;;;;;;;33.50;99.90;;;;;;5092829;28;19915;-73
2023/06/26 09:40:30;;;;;;;;;;;33.40;99.90;;;;;;5092496;28;19934;-74
2023/06/26 09:43:02;;;;;;;;;;;33.10;99.90;;;;;;5074304;28;19908;-76
2023/06/26 09:45:28;;;;;;;;;;;33.40;99.90;;;;;;5073989;28;20316;-74
2023/06/26 09:47:54;;;;;;;;;;;33.20;99.90;;;;;;5074130;28;19908;-73
2023/06/26 09:50:24;;;;;;;;;;;33.10;99.90;;;;;;5092421;28;19916;-74
2023/06/26 09:52:51;;;;;;;;;;;33.20;99.90;;;;;;5092350;28;19919;-74
2023/06/26 09:55:26;;;;;;;;;;;33.30;99.90;;;;;;5092934;28;19916;-74
2023/06/26 09:57:52;;;;;;;;;;;33.00;99.90;;;;;;5092341;28;19984;-74
2023/06/26 10:00:18;;;;;;;;;;;32.90;99.90;;;;;;5092204;28;19978;-73
2023/06/26 10:02:44;;;;;;;;;;;32.90;99.90;;;;;;5092214;28;19913;-74
2023/06/26 10:05:10;;;;;;;;;;;33.00;99.90;;;;;;5092215;28;19990;-73
2023/06/26 10:07:36;;;;;;;;;;;32.90;99.90;;;;;;5092328;28;19909;-75
2023/06/26 10:10:02;;;;;;;;;;;32.80;99.90;;;;;;5092916;28;19930;-77
2023/06/26 10:12:29;;;;;;;;;;;32.40;99.90;;;;;;5092178;28;19920;-76
2023/06/26 10:14:57;;;;;;;;;;;31.90;99.90;;;;;;5073804;28;20011;-76
2023/06/26 10:17:24;;;;;;;;;;;32.20;99.90;;;;;;5091920;28;20000;-74
2023/06/26 10:19:52;;;;;;;;;;;32.30;99.90;;;;;;5092222;28;19911;-74
2023/06/26 10:22:20;;;;;;;;;;;32.40;99.90;;;;;;5092081;28;20243;-75
2023/06/26 10:24:47;;;;;;;;;;;32.30;99.90;;;;;;5096052;28;20371;-77
2023/06/26 10:27:15;;;;;;;;;;;32.30;99.90;;;;;;5096165;28;19999;-75
2023/06/26 10:29:43;;;;;;;;;;;32.30;99.90;;;;;;5095947;28;19908;-75
2023/06/26 10:32:11;;;;;;;;;;;31.70;99.90;;;;;;5095790;28;20291;-74
2023/06/26 10:34:37;;;;;;;;;;;31.70;99.90;;;;;;5095884;28;19992;-75
2023/06/26 10:37:06;;;;;;;;;;;31.70;99.90;;;;;;5095776;28;19912;-74
2023/06/26 10:39:50;;;;;;;;;;;31.90;99.90;;;;;;5095550;28;19908;-74
2023/06/26 10:42:17;;;;;;;;;;;32.20;99.90;;;;;;5095922;28;19908;-74
2023/06/26 10:44:43;;;;;;;;;;;32.10;99.90;;;;;;5095883;28;19980;-74
2023/06/26 10:47:09;;;;;;;;;;;31.80;99.90;;;;;;5095499;28;19908;-74
2023/06/26 10:49:36;;;;;;;;;;;31.90;99.90;;;;;;5077084;28;20221;-75
2023/06/26 10:52:02;;;;;;;;;;;31.70;99.90;;;;;;5095322;28;19908;-74
2023/06/26 10:54:29;;;;;;;;;;;31.70;99.90;;;;;;5095371;28;19934;-74
2023/06/26 10:56:58;;;;;;;;;;;32.10;99.90;;;;;;5095129;28;20014;-75
2023/06/26 10:59:25;;;;;;;;;;;32.20;99.90;;;;;;5095284;28;19908;-76
2023/06/26 11:02:01;;;;;;;;;;;32.20;99.90;;;;;;5095271;28;19908;-74
2023/06/26 11:04:40;;;;;;;;;;;32.10;99.90;;;;;;5095329;28;19908;-74
2023/06/26 11:07:22;;;;;;;;;;;32.20;99.90;;;;;;5095259;28;20256;-74
2023/06/26 11:10:07;;;;;;;;;;;32.30;99.90;;;;;;5095335;28;19916;-75
2023/06/26 11:12:36;;;;;;;;;;;32.30;99.90;;;;;;5094787;28;20314;-75
2023/06/26 11:15:03;;;;;;;;;;;32.00;99.90;;;;;;5095424;28;19923;-76
2023/06/26 11:17:29;;;;;;;;;;;31.90;99.90;;;;;;5095055;28;19908;-74
2023/06/26 11:19:55;;;;;;;;;;;31.90;99.90;;;;;;5095188;28;19908;-74
2023/06/26 11:22:22;;;;;;;;;;;32.00;99.90;;;;;;5076433;28;20003;-74
2023/06/26 11:24:48;;;;;;;;;;;32.00;99.90;;;;;;5095136;28;19930;-74
2023/06/26 11:27:15;;;;;;;;;;;31.90;99.90;;;;;;5094691;28;19961;-73
2023/06/26 11:29:47;;;;;;;;;;;31.70;99.90;;;;;;5076346;28;19915;-74
2023/06/26 11:32:13;;;;;;;;;;;31.60;99.90;;;;;;5094743;28;19913;-74
2023/06/26 11:34:39;;;;;;;;;;;31.70;99.90;;;;;;5093734;28;20031;-74
2023/06/26 11:37:05;;;;;;;;;;;32.00;99.90;;;;;;5095067;28;19932;-74
2023/06/26 11:39:31;;;;;;;;;;;31.80;99.90;;;;;;5094368;28;19915;-74
2023/06/26 11:41:57;;;;;;;;;;;31.70;99.90;;;;;;5094222;28;19933;-75
2023/06/26 11:44:23;;;;;;;;;;;32.00;99.90;;;;;;5094829;28;20008;-74
2023/06/26 11:46:51;;;;;;;;;;;31.90;99.90;;;;;;5094481;28;19947;-75
2023/06/26 11:49:17;;;;;;;;;;;31.60;99.90;;;;;;5094614;28;19915;-74
2023/06/26 11:51:43;;;;;;;;;;;31.90;99.90;;;;;;5094457;28;19908;-74
2023/06/26 11:54:09;;;;;;;;;;;31.70;99.90;;;;;;5094680;28;20325;-74
2023/06/26 11:56:35;;;;;;;;;;;32.00;99.90;;;;;;5094129;28;20360;-74
2023/06/26 11:59:04;;;;;;;;;;;32.00;99.90;;;;;;5094211;28;19999;-74
2023/06/26 12:01:34;;;;;;;;;;;32.10;99.90;;;;;;5075638;28;19951;-74
2023/06/26 12:04:01;;;;;;;;;;;32.20;99.90;;;;;;5094147;28;20270;-74
2023/06/26 12:06:28;;;;;;;;;;;32.00;99.90;;;;;;5075791;28;20272;-74
2023/06/26 12:08:54;;;;;;;;;;;31.80;99.90;;;;;;5093888;28;19996;-75
2023/06/26 12:11:20;;;;;;;;;;;31.90;99.90;;;;;;5093911;28;19960;-74
2023/06/26 12:13:46;;;;;;;;;;;31.80;99.90;;;;;;5093768;28;19985;-74
2023/06/26 12:16:14;;;;;;;;;;;32.00;99.90;;;;;;5094106;28;19916;-74
2023/06/26 12:18:40;;;;;;;;;;;32.10;99.90;;;;;;5094121;28;19916;-73
2023/06/26 12:21:07;;;;;;;;;;;32.00;99.90;;;;;;5093911;28;19908;-74
2023/06/26 12:23:34;;;;;;;;;;;32.10;99.90;;;;;;5058906;28;19931;-74
2023/06/26 12:26:15;;;;;;;;;;;32.00;99.90;;;;;;5093705;28;19912;-75
2023/06/26 12:28:44;;;;;;;;;;;32.10;99.90;;;;;;5093843;28;19971;-75
2023/06/26 12:31:16;;;;;;;;;;;32.50;99.90;;;;;;5093723;28;19909;-74
2023/06/26 12:33:45;;;;;;;;;;;32.50;99.90;;;;;;5075523;28;20011;-75
2023/06/26 12:36:14;;;;;;;;;;;32.50;99.90;;;;;;5094016;28;19958;-74
2023/06/26 12:38:45;;;;;;;;;;;32.70;99.90;;;;;;5093661;28;19912;-74
2023/06/26 12:41:17;;;;;;;;;;;33.00;99.90;;;;;;5093590;28;20383;-74
2023/06/26 12:43:43;;;;;;;;;;;33.10;99.90;;;;;;5093785;28;20320;-75
2023/06/26 12:46:09;;;;;;;;;;;32.90;99.90;;;;;;5094104;28;20372;-74
2023/06/26 12:48:47;;;;;;;;;;;33.20;99.90;;;;;;5093600;28;19919;-74
2023/06/26 12:51:13;;;;;;;;;;;33.20;99.90;;;;;;5094027;28;19908;-74
2023/06/26 12:53:42;;;;;;;;;;;33.50;99.90;;;;;;5093503;28;19969;-75
2023/06/26 12:56:08;;;;;;;;;;;33.50;99.90;;;;;;5094043;28;19915;-74
2023/06/26 12:58:35;;;;;;;;;;;33.70;99.90;;;;;;5093293;28;19917;-74
2023/06/26 13:01:14;;;;;;;;;;;33.50;99.90;;;;;;5093332;28;19912;-74
2023/06/26 13:03:43;;;;;;;;;;;33.50;99.90;;;;;;5093843;28;19912;-74
2023/06/26 13:06:09;;;;;;;;;;;33.20;99.90;;;;;;5093411;28;20037;-74
2023/06/26 13:08:36;;;;;;;;;;;33.40;99.90;;;;;;5093619;28;20364;-74
2023/06/26 13:11:02;;;;;;;;;;;33.30;99.90;;;;;;5093441;28;20280;-76
2023/06/26 13:13:28;;;;;;;;;;;33.50;99.90;;;;;;5092701;28;19969;-75
2023/06/26 13:15:56;;;;;;;;;;;33.50;99.90;;;;;;5092231;28;20452;-74
2023/06/26 13:18:22;;;;;;;;;;;33.50;99.90;;;;;;5093088;28;19955;-74
2023/06/26 13:20:47;;;;;;;;;;;33.50;99.90;;;;;;5093402;28;19946;-74
2023/06/26 13:23:13;;;;;;;;;;;33.60;99.90;;;;;;5093174;28;20003;-74
2023/06/26 13:25:39;;;;;;;;;;;33.50;99.90;;;;;;5092940;28;20017;-74
2023/06/26 13:28:05;;;;;;;;;;;33.50;99.90;;;;;;5092701;28;19915;-74
2023/06/26 13:30:31;;;;;;;;;;;33.50;99.90;;;;;;5093379;28;19912;-74
2023/06/26 13:32:56;;;;;;;;;;;33.50;99.90;;;;;;5093194;28;19994;-74
2023/06/26 13:35:23;;;;;;;;;;;33.70;99.90;;;;;;5092715;28;19923;-74
2023/06/26 13:37:49;;;;;;;;;;;33.60;99.90;;;;;;5074618;28;19908;-74
2023/06/26 13:40:15;;;;;;;;;;;33.80;99.90;;;;;;5093200;28;19909;-74
2023/06/26 13:42:41;;;;;;;;;;;33.80;99.90;;;;;;5092708;28;19955;-74
2023/06/26 13:45:07;;;;;;;;;;;33.70;99.90;;;;;;5092627;28;19978;-74
2023/06/26 13:47:34;;;;;;;;;;;33.80;99.90;;;;;;5092738;28;19995;-74
2023/06/26 13:50:00;;;;;;;;;;;33.90;99.90;;;;;;5092968;28;20049;-74
2023/06/26 13:52:26;;;;;;;;;;;33.80;99.90;;;;;;5092641;28;20341;-74
2023/06/26 13:54:52;;;;;;;;;;;33.80;99.90;;;;;;5092878;28;20014;-74
2023/06/26 13:57:22;;;;;;;;;;;33.70;99.90;;;;;;5092495;28;19915;-74
2023/06/26 13:59:47;;;;;;;;;;;33.50;99.90;;;;;;5097142;28;19996;-75
2023/06/26 14:02:13;;;;;;;;;;;32.80;99.90;;;;;;5078509;28;19962;-75
2023/06/26 14:04:39;;;;;;;;;;;32.80;99.90;;;;;;5096793;28;20006;-74
2023/06/26 14:07:06;;;;;;;;;;;32.90;99.90;;;;;;5096444;28;19955;-74
2023/06/26 14:09:31;;;;;;;;;;;33.00;99.90;;;;;;5096681;28;20011;-74
2023/06/26 14:11:58;;;;;;;;;;;33.20;99.90;;;;;;5096518;28;19974;-74
2023/06/26 14:14:23;;;;;;;;;;;33.50;99.90;;;;;;5096440;28;19920;-74